createdAt,value
2018-09-24T00:00:16.124Z,11.10
2018-09-24T00:02:44.705Z,12.87
2018-09-24T00:05:13.116Z,11.43
2018-09-24T00:07:41.634Z,9.53
2018-09-24T00:10:10.116Z,8.90
2018-09-24T00:12:38.572Z,12.97
2018-09-24T00:15:07.081Z,6.00
2018-09-24T00:17:35.517Z,10.77
2018-09-24T00:20:04.038Z,9.93
2018-09-24T00:22:32.497Z,15.27
2018-09-24T00:25:00.983Z,14.00
2018-09-24T00:27:29.404Z,8.23
2018-09-24T00:29:57.881Z,7.23
2018-09-24T00:32:26.313Z,13.03
2018-09-24T00:34:54.747Z,9.93
2018-09-24T00:37:23.195Z,12.90
2018-09-24T00:39:51.663Z,13.30
2018-09-24T00:42:20.089Z,18.40
2018-09-24T00:44:48.555Z,12.00
2018-09-24T00:47:17.015Z,17.37
2018-09-24T00:49:45.481Z,14.67
2018-09-24T00:52:13.928Z,15.20
2018-09-24T00:54:42.332Z,14.17
2018-09-24T00:57:10.762Z,11.20
2018-09-24T00:59:39.173Z,11.43
2018-09-24T01:02:07.656Z,9.63
2018-09-24T01:04:36.098Z,10.13
2018-09-24T01:07:04.656Z,12.77
2018-09-24T01:09:33.120Z,14.40
2018-09-24T01:12:01.561Z,8.37
2018-09-24T01:14:30.064Z,9.10
2018-09-24T01:16:58.492Z,12.90
2018-09-24T01:19:26.920Z,13.00
2018-09-24T01:21:55.404Z,10.80
2018-09-24T01:24:23.856Z,10.30
2018-09-24T01:26:52.315Z,8.20
2018-09-24T01:29:20.760Z,13.30
2018-09-24T01:31:49.187Z,9.83
2018-09-24T01:34:17.622Z,11.40
2018-09-24T01:36:46.146Z,17.23
2018-09-24T01:39:14.631Z,16.47
2018-09-24T01:41:43.134Z,13.40
2018-09-24T01:44:11.634Z,15.13
2018-09-24T01:46:40.087Z,10.17
2018-09-24T01:49:08.604Z,19.83
2018-09-24T01:51:38.505Z,13.83
2018-09-24T01:54:07.677Z,12.00
2018-09-24T01:56:36.144Z,16.47
2018-09-24T01:59:04.625Z,14.13
2018-09-24T02:01:33.213Z,14.23
2018-09-24T02:04:01.679Z,13.77
2018-09-24T02:06:30.138Z,12.03
2018-09-24T02:08:58.571Z,11.83
2018-09-24T02:11:27.019Z,9.67
2018-09-24T02:13:55.467Z,8.53
2018-09-24T02:16:23.912Z,12.07
2018-09-24T02:18:56.970Z,19.60
2018-09-24T02:21:25.431Z,11.50
2018-09-24T02:23:54.063Z,12.40
2018-09-24T02:26:22.503Z,15.07
2018-09-24T02:28:50.934Z,13.50
2018-09-24T02:31:19.336Z,14.80
2018-09-24T02:33:47.763Z,18.40
2018-09-24T02:36:16.189Z,13.87
2018-09-24T02:38:44.664Z,14.83
2018-09-24T02:41:13.128Z,11.63
2018-09-24T02:43:41.576Z,13.57
2018-09-24T02:46:10.070Z,14.80
2018-09-24T02:48:38.512Z,16.20
2018-09-24T02:51:06.993Z,15.47
2018-09-24T02:53:38.580Z,15.37
2018-09-24T02:56:07.588Z,14.60
2018-09-24T02:58:36.051Z,12.77
2018-09-24T03:01:04.567Z,13.90
2018-09-24T03:03:33.049Z,15.13
2018-09-24T03:06:01.509Z,16.87
2018-09-24T03:08:29.956Z,17.37
2018-09-24T03:11:03.895Z,18.23
2018-09-24T03:13:32.349Z,12.53
2018-09-24T03:16:00.812Z,15.60
2018-09-24T03:18:29.303Z,17.13
2018-09-24T03:20:57.820Z,14.47
2018-09-24T03:23:26.304Z,15.17
2018-09-24T03:25:54.760Z,18.47
2018-09-24T03:28:23.214Z,16.00
2018-09-24T03:30:51.674Z,15.50
2018-09-24T03:33:20.081Z,13.20
2018-09-24T03:35:48.534Z,11.53
2018-09-24T03:38:16.960Z,17.70
2018-09-24T03:40:45.405Z,12.40
2018-09-24T03:43:13.830Z,12.43
2018-09-24T03:45:42.243Z,18.67
2018-09-24T03:48:10.694Z,11.50
2018-09-24T03:50:39.171Z,14.50
2018-09-24T03:53:07.590Z,11.57
2018-09-24T03:55:36.037Z,8.77
2018-09-24T03:58:04.505Z,11.47
2018-09-24T04:00:32.983Z,15.40
2018-09-24T04:03:01.407Z,20.67
2018-09-24T04:05:35.386Z,18.17
2018-09-24T04:08:09.285Z,14.47
2018-09-24T04:10:43.218Z,14.47
2018-09-24T04:13:17.101Z,18.53
2018-09-24T04:15:50.922Z,17.83
2018-09-24T04:18:24.644Z,17.93
2018-09-24T04:20:58.375Z,13.47
2018-09-24T04:23:32.130Z,20.20
2018-09-24T04:26:06.044Z,16.03
2018-09-24T04:28:39.795Z,13.80
2018-09-24T04:31:13.506Z,13.13
2018-09-24T04:33:47.310Z,15.23
2018-09-24T04:36:20.918Z,16.80
2018-09-24T04:38:54.786Z,19.10
2018-09-24T04:41:28.638Z,15.43
2018-09-24T04:44:02.392Z,15.50
2018-09-24T04:46:36.177Z,11.50
2018-09-24T04:49:10.082Z,20.17
2018-09-24T04:51:44.046Z,16.97
2018-09-24T04:54:18.007Z,13.13
2018-09-24T04:56:51.882Z,12.47
2018-09-24T04:59:25.870Z,18.17
2018-09-24T05:01:59.696Z,15.80
2018-09-24T05:04:34.100Z,15.20
2018-09-24T05:07:08.234Z,16.47
2018-09-24T05:09:42.046Z,18.70
2018-09-24T05:12:15.856Z,8.10
2018-09-24T05:14:49.820Z,14.33
2018-09-24T05:17:23.643Z,11.70
2018-09-24T05:19:57.437Z,12.03
2018-09-24T05:22:31.205Z,19.47
2018-09-24T05:25:04.886Z,11.13
2018-09-24T05:27:38.660Z,12.93
2018-09-24T05:30:12.435Z,16.67
2018-09-24T05:32:46.105Z,12.97
2018-09-24T05:35:19.943Z,15.93
2018-09-24T05:37:53.630Z,15.63
2018-09-24T05:40:27.533Z,17.77
2018-09-24T05:43:01.318Z,15.53
2018-09-24T05:45:35.168Z,14.90
2018-09-24T05:48:08.933Z,9.63
2018-09-24T05:50:42.761Z,27.37
2018-09-24T05:53:16.643Z,14.33
2018-09-24T05:55:50.349Z,20.07
2018-09-24T05:58:24.247Z,13.60
2018-09-24T06:00:58.055Z,12.57
2018-09-24T06:03:31.901Z,20.37
2018-09-24T06:06:05.986Z,15.63
2018-09-24T06:08:39.851Z,18.83
2018-09-24T06:11:13.836Z,15.20
2018-09-24T06:13:47.729Z,15.57
2018-09-24T06:16:21.689Z,15.10
2018-09-24T06:18:55.422Z,12.57
2018-09-24T06:21:29.121Z,9.80
2018-09-24T06:24:02.893Z,16.90
2018-09-24T06:26:36.807Z,14.37
2018-09-24T06:29:10.452Z,15.60
2018-09-24T06:31:44.450Z,12.90
2018-09-24T06:34:18.467Z,12.83
2018-09-24T06:36:52.202Z,17.70
2018-09-24T06:39:25.981Z,14.33
2018-09-24T06:41:59.828Z,11.67
2018-09-24T06:44:33.683Z,18.93
2018-09-24T06:47:07.594Z,17.80
2018-09-24T06:49:41.592Z,13.83
2018-09-24T06:52:15.348Z,12.00
2018-09-24T06:54:49.278Z,12.27
2018-09-24T06:57:23.263Z,13.23
2018-09-24T06:59:57.282Z,14.00
2018-09-24T07:02:31.191Z,17.10
2018-09-24T07:05:05.186Z,9.40
2018-09-24T07:07:38.910Z,13.10
2018-09-24T07:10:12.898Z,18.67
2018-09-24T07:12:46.970Z,10.00
2018-09-24T07:15:20.908Z,12.20
2018-09-24T07:17:54.767Z,10.17
2018-09-24T07:20:28.640Z,10.90
2018-09-24T07:23:02.369Z,15.93
2018-09-24T07:25:36.328Z,9.80
2018-09-24T07:28:10.081Z,13.37
2018-09-24T07:30:43.844Z,15.33
2018-09-24T07:33:17.878Z,13.57
2018-09-24T07:35:51.722Z,10.33
2018-09-24T07:38:25.680Z,11.53
2018-09-24T07:40:59.532Z,12.60
2018-09-24T07:43:33.489Z,8.17
2018-09-24T07:46:07.424Z,16.47
2018-09-24T07:48:41.155Z,16.90
2018-09-24T07:51:15.162Z,7.53
2018-09-24T07:53:48.984Z,9.90
2018-09-24T07:56:22.764Z,8.90
2018-09-24T07:58:56.712Z,9.13
2018-09-24T08:01:30.522Z,10.17
2018-09-24T08:04:04.451Z,11.63
2018-09-24T08:06:38.137Z,10.13
2018-09-24T08:09:13.205Z,10.60
2018-09-24T08:11:46.985Z,9.97
2018-09-24T08:14:20.885Z,7.40
2018-09-24T08:16:54.740Z,7.30
2018-09-24T08:19:28.521Z,8.87
2018-09-24T08:22:02.346Z,8.30
2018-09-24T08:24:36.295Z,9.83
2018-09-24T08:27:10.182Z,6.33
2018-09-24T08:29:44.010Z,8.53
2018-09-24T08:32:17.800Z,6.50
2018-09-24T08:34:51.401Z,9.23
2018-09-24T08:37:25.146Z,6.30
2018-09-24T08:39:58.980Z,8.30
2018-09-24T08:42:32.704Z,6.53
2018-09-24T08:45:06.556Z,4.47
2018-09-24T08:47:40.284Z,5.63
2018-09-24T08:50:14.245Z,4.77
2018-09-24T08:52:48.146Z,7.47
2018-09-24T08:55:21.948Z,6.73
2018-09-24T08:57:55.890Z,8.37
2018-09-24T09:00:29.695Z,6.30
2018-09-24T09:03:10.102Z,5.37
2018-09-24T09:05:44.058Z,4.27
2018-09-24T09:08:18.151Z,4.57
2018-09-24T09:10:52.036Z,3.07
2018-09-24T09:13:25.939Z,5.20
2018-09-24T09:15:59.867Z,7.20
2018-09-24T09:18:33.655Z,6.37
2018-09-24T09:21:07.750Z,6.17
2018-09-24T09:23:41.793Z,3.23
2018-09-24T09:26:15.683Z,4.33
2018-09-24T09:28:49.576Z,4.30
2018-09-24T09:31:23.335Z,6.20
2018-09-24T09:33:57.187Z,4.97
2018-09-24T09:36:31.105Z,3.10
2018-09-24T09:39:05.008Z,2.83
2018-09-24T09:41:38.907Z,4.70
2018-09-24T09:44:12.865Z,3.23
2018-09-24T09:46:46.876Z,6.93
2018-09-24T09:49:20.982Z,5.93
2018-09-24T09:51:54.912Z,4.47
2018-09-24T09:54:28.572Z,5.27
2018-09-24T09:57:02.326Z,3.27
2018-09-24T09:59:36.035Z,1.87
2018-09-24T10:02:09.936Z,3.90
2018-09-24T10:04:43.702Z,2.70
2018-09-24T10:07:17.589Z,3.87
2018-09-24T10:09:51.552Z,2.27
2018-09-24T10:12:25.349Z,2.90
2018-09-24T10:14:59.010Z,2.90
2018-09-24T10:17:32.976Z,2.17
2018-09-24T10:20:06.771Z,3.57
2018-09-24T10:22:40.642Z,5.00
2018-09-24T10:25:14.688Z,3.60
2018-09-24T10:27:48.540Z,5.10
2018-09-24T10:30:22.505Z,4.87
2018-09-24T10:32:56.351Z,3.07
2018-09-24T10:35:30.236Z,2.20
2018-09-24T10:38:04.160Z,3.00
2018-09-24T10:40:38.157Z,4.27
2018-09-24T10:43:12.811Z,4.57
2018-09-24T10:45:46.719Z,4.13
2018-09-24T10:48:20.430Z,2.17
2018-09-24T10:50:54.313Z,2.23
2018-09-24T10:53:28.357Z,3.00
2018-09-24T10:56:02.349Z,2.67
2018-09-24T10:58:36.290Z,1.60
2018-09-24T11:01:10.197Z,0.90
2018-09-24T11:03:44.174Z,1.80
2018-09-24T11:06:18.231Z,4.30
2018-09-24T11:08:52.148Z,1.70
2018-09-24T11:11:26.148Z,0.87
2018-09-24T11:14:00.069Z,4.53
2018-09-24T11:16:34.391Z,1.60
2018-09-24T11:19:08.057Z,1.80
2018-09-24T11:21:41.856Z,3.47
2018-09-24T11:24:15.825Z,2.30
2018-09-24T11:26:49.665Z,1.67
2018-09-24T11:29:23.562Z,0.77
2018-09-24T11:31:57.397Z,2.47
2018-09-24T11:34:31.230Z,4.57
2018-09-24T11:37:05.195Z,1.40
2018-09-24T11:39:39.216Z,0.90
2018-09-24T11:42:13.180Z,2.37
2018-09-24T11:44:47.111Z,2.83
2018-09-24T11:47:21.013Z,1.77
2018-09-24T11:49:54.959Z,4.33
2018-09-24T11:52:28.958Z,1.90
2018-09-24T11:55:02.904Z,3.07
2018-09-24T11:57:36.907Z,1.30
2018-09-24T12:00:10.791Z,4.43
2018-09-24T12:02:44.583Z,3.27
2018-09-24T12:05:18.530Z,1.80
2018-09-24T12:07:52.409Z,1.33
2018-09-24T12:10:26.446Z,2.03
2018-09-24T12:13:00.254Z,1.63
2018-09-24T12:15:34.168Z,4.77
2018-09-24T12:18:08.084Z,1.27
2018-09-24T12:20:41.812Z,2.37
2018-09-24T12:23:15.736Z,2.67
2018-09-24T12:25:49.593Z,2.57
2018-09-24T12:28:23.351Z,2.43
2018-09-24T12:30:57.200Z,2.23
2018-09-24T12:33:31.211Z,1.47
2018-09-24T12:36:05.081Z,1.93
2018-09-24T12:38:39.203Z,1.40
2018-09-24T12:41:13.132Z,3.17
2018-09-24T12:43:46.996Z,4.50
2018-09-24T12:46:21.213Z,2.17
2018-09-24T12:48:55.182Z,3.53
2018-09-24T12:51:29.113Z,3.30
2018-09-24T12:54:03.106Z,2.73
2018-09-24T12:56:37.061Z,2.33
2018-09-24T12:59:10.933Z,4.50
2018-09-24T13:01:44.969Z,2.13
2018-09-24T13:04:18.910Z,2.30
2018-09-24T13:06:52.761Z,3.90
2018-09-24T13:09:26.597Z,3.87
2018-09-24T13:12:00.440Z,4.10
2018-09-24T13:14:34.172Z,1.87
2018-09-24T13:17:07.983Z,3.50
2018-09-24T13:19:41.979Z,2.53
2018-09-24T13:22:15.776Z,3.87
2018-09-24T13:24:49.466Z,2.60
2018-09-24T13:27:23.332Z,2.03
2018-09-24T13:29:57.092Z,3.87
2018-09-24T13:32:31.003Z,3.37
2018-09-24T13:35:04.859Z,2.63
2018-09-24T13:37:38.634Z,3.13
2018-09-24T13:40:12.514Z,2.73
2018-09-24T13:42:46.440Z,2.50
2018-09-24T13:45:20.396Z,1.50
2018-09-24T13:47:54.241Z,4.73
2018-09-24T13:50:28.143Z,3.23
2018-09-24T13:53:02.032Z,2.43
2018-09-24T13:55:35.823Z,2.63
2018-09-24T13:58:09.691Z,3.20
2018-09-24T14:00:43.493Z,1.17
2018-09-24T14:03:17.436Z,2.70
2018-09-24T14:05:51.570Z,1.27
2018-09-24T14:08:25.542Z,2.50
2018-09-24T14:10:59.616Z,2.77
2018-09-24T14:13:33.513Z,3.33
2018-09-24T14:16:07.333Z,3.45
2018-09-24T14:18:41.351Z,4.25
2018-09-24T14:21:15.176Z,5.50
2018-09-24T14:23:48.939Z,2.27
2018-09-24T14:26:23.275Z,3.23
2018-09-24T14:28:57.103Z,1.50
2018-09-24T14:31:31.110Z,4.30
2018-09-24T14:34:04.892Z,4.33
2018-09-24T14:36:38.884Z,4.33
2018-09-24T14:39:13.565Z,3.53
2018-09-24T14:41:47.901Z,4.10
2018-09-24T14:44:21.832Z,4.13
2018-09-24T14:46:55.700Z,3.53
2018-09-24T14:49:29.584Z,4.63
2018-09-24T14:52:03.692Z,2.73
2018-09-24T14:54:37.514Z,5.13
2018-09-24T14:57:11.444Z,2.83
2018-09-24T14:59:45.207Z,4.23
2018-09-24T15:02:19.121Z,3.95
2018-09-24T15:04:52.993Z,4.10
2018-09-24T15:07:26.932Z,5.60
2018-09-24T15:10:00.878Z,3.47
2018-09-24T15:12:34.813Z,4.43
2018-09-24T15:15:08.545Z,2.60
2018-09-24T15:17:42.513Z,3.73
2018-09-24T15:20:16.371Z,4.00
2018-09-24T15:22:50.421Z,3.80
2018-09-24T15:25:24.450Z,4.00
2018-09-24T15:27:58.365Z,2.93
2018-09-24T15:30:32.146Z,2.50
2018-09-24T15:33:05.916Z,1.60
2018-09-24T15:35:39.810Z,2.13
2018-09-24T15:38:13.729Z,1.90
2018-09-24T15:40:47.783Z,2.23
2018-09-24T15:43:21.589Z,4.43
2018-09-24T15:45:55.277Z,6.07
2018-09-24T15:48:29.099Z,3.17
2018-09-24T15:51:03.115Z,4.97
2018-09-24T15:53:36.999Z,4.83
2018-09-24T15:56:10.917Z,3.07
2018-09-24T15:58:44.828Z,4.63
2018-09-24T16:01:18.692Z,6.00
2018-09-24T16:03:52.423Z,5.80
2018-09-24T16:06:26.372Z,2.80
2018-09-24T16:09:00.331Z,4.17
2018-09-24T16:11:34.405Z,3.10
2018-09-24T16:14:08.411Z,4.43
2018-09-24T16:16:42.412Z,4.50
2018-09-24T16:19:16.350Z,3.90
2018-09-24T16:21:50.101Z,4.07
2018-09-24T16:24:24.110Z,5.57
2018-09-24T16:26:58.038Z,3.13
2018-09-24T16:29:32.002Z,3.17
2018-09-24T16:32:05.760Z,3.17
2018-09-24T16:34:39.776Z,4.70
2018-09-24T16:37:13.576Z,3.53
2018-09-24T16:39:47.488Z,5.40
2018-09-24T16:42:21.493Z,4.30
2018-09-24T16:44:55.438Z,3.07
2018-09-24T16:47:29.124Z,6.40
2018-09-24T16:50:02.875Z,6.73
2018-09-24T16:52:36.860Z,6.17
2018-09-24T16:55:10.578Z,8.70
2018-09-24T16:57:44.340Z,3.97
2018-09-24T17:00:18.308Z,6.67
2018-09-24T17:02:52.422Z,2.43
2018-09-24T17:05:26.323Z,5.17
2018-09-24T17:08:00.110Z,2.93
2018-09-24T17:10:34.065Z,5.03
2018-09-24T17:13:07.889Z,2.77
2018-09-24T17:15:41.778Z,6.17
2018-09-24T17:18:15.604Z,3.83
2018-09-24T17:20:49.409Z,6.03
2018-09-24T17:23:23.379Z,4.50
2018-09-24T17:25:57.217Z,4.37
2018-09-24T17:28:30.920Z,4.17
2018-09-24T17:31:04.814Z,4.50
2018-09-24T17:33:38.620Z,4.00
2018-09-24T17:36:12.593Z,3.97
2018-09-24T17:38:46.438Z,3.87
2018-09-24T17:41:20.400Z,5.70
2018-09-24T17:43:54.274Z,3.40
2018-09-24T17:46:35.007Z,5.97
2018-09-24T17:49:08.916Z,6.53
2018-09-24T17:51:42.973Z,7.57
2018-09-24T17:54:16.888Z,6.33
2018-09-24T17:56:50.805Z,7.53
2018-09-24T17:59:24.826Z,6.13
2018-09-24T18:01:58.577Z,4.87
2018-09-24T18:04:32.295Z,8.30
2018-09-24T18:07:06.069Z,6.90
2018-09-24T18:09:39.949Z,13.40
2018-09-24T18:12:13.858Z,11.20
2018-09-24T18:14:47.663Z,8.63
2018-09-24T18:17:21.642Z,8.23
2018-09-24T18:19:55.504Z,7.40
2018-09-24T18:22:29.330Z,8.13
2018-09-24T18:25:03.035Z,10.30
2018-09-24T18:27:36.962Z,9.40
2018-09-24T18:30:11.009Z,12.67
2018-09-24T18:32:44.737Z,8.73
2018-09-24T18:35:18.696Z,9.27
2018-09-24T18:37:52.409Z,7.10
2018-09-24T18:40:26.324Z,14.43
2018-09-24T18:43:00.189Z,8.27
2018-09-24T18:45:34.150Z,14.97
2018-09-24T18:48:08.029Z,13.23
2018-09-24T18:50:41.951Z,10.47
2018-09-24T18:53:15.655Z,12.40
2018-09-24T18:55:49.607Z,8.00
2018-09-24T18:58:23.422Z,14.17
2018-09-24T19:00:57.376Z,16.20
2018-09-24T19:03:31.136Z,15.80
2018-09-24T19:06:05.097Z,12.77
2018-09-24T19:08:39.068Z,13.93
2018-09-24T19:11:13.083Z,13.00
2018-09-24T19:13:46.789Z,9.80
2018-09-24T19:16:20.690Z,10.80
2018-09-24T19:18:54.727Z,11.87
2018-09-24T19:21:28.656Z,8.47
2018-09-24T19:24:02.537Z,11.97
2018-09-24T19:26:36.526Z,9.97
2018-09-24T19:29:10.302Z,12.67
2018-09-24T19:31:44.133Z,10.23
2018-09-24T19:34:17.935Z,12.60
2018-09-24T19:36:51.992Z,11.60
2018-09-24T19:39:25.888Z,11.87
2018-09-24T19:41:59.799Z,13.13
2018-09-24T19:44:33.618Z,14.73
2018-09-24T19:47:07.350Z,13.03
2018-09-24T19:49:41.281Z,12.03
2018-09-24T19:52:14.981Z,14.57
2018-09-24T19:54:48.957Z,11.63
2018-09-24T19:57:22.796Z,17.70
2018-09-24T19:59:56.596Z,16.33
2018-09-24T20:02:30.294Z,16.93
2018-09-24T20:05:04.215Z,16.20
2018-09-24T20:07:37.963Z,18.87
2018-09-24T20:10:11.914Z,15.70
2018-09-24T20:12:45.635Z,19.37
2018-09-24T20:15:19.488Z,18.03
2018-09-24T20:17:53.200Z,16.77
2018-09-24T20:20:27.105Z,20.13
2018-09-24T20:23:00.956Z,15.40
2018-09-24T20:25:34.704Z,17.13
2018-09-24T20:28:08.529Z,14.70
2018-09-24T20:30:42.947Z,18.10
2018-09-24T20:33:16.634Z,20.13
2018-09-24T20:35:50.449Z,18.67
2018-09-24T20:38:24.234Z,20.93
2018-09-24T20:40:58.004Z,16.80
2018-09-24T20:43:31.759Z,13.60
2018-09-24T20:46:05.453Z,17.83
2018-09-24T20:48:39.384Z,15.47
2018-09-24T20:51:13.331Z,15.30
2018-09-24T20:53:47.259Z,18.53
2018-09-24T20:56:20.938Z,16.80
2018-09-24T20:58:54.932Z,16.07
2018-09-24T21:01:28.757Z,18.00
2018-09-24T21:04:02.660Z,15.00
2018-09-24T21:06:36.369Z,15.10
2018-09-24T21:09:12.206Z,12.67
2018-09-24T21:11:46.095Z,19.47
2018-09-24T21:14:20.024Z,14.40
2018-09-24T21:16:53.740Z,21.30
2018-09-24T21:19:27.642Z,15.57
2018-09-24T21:22:01.634Z,17.13
2018-09-24T21:24:35.407Z,15.40
2018-09-24T21:27:09.258Z,14.03
2018-09-24T21:29:43.184Z,18.60
2018-09-24T21:32:17.133Z,17.00
2018-09-24T21:34:51.086Z,14.17
2018-09-24T21:37:25.075Z,13.57
2018-09-24T21:39:58.823Z,17.80
2018-09-24T21:42:32.668Z,16.47
2018-09-24T21:45:06.377Z,17.17
2018-09-24T21:47:40.299Z,19.60
2018-09-24T21:50:14.266Z,12.43
2018-09-24T21:52:48.005Z,18.33
2018-09-24T21:55:21.962Z,17.30
2018-09-24T21:57:55.822Z,19.17
2018-09-24T22:00:29.899Z,14.70
2018-09-24T22:03:03.736Z,15.90
2018-09-24T22:05:37.477Z,15.40
2018-09-24T22:08:11.424Z,15.70
2018-09-24T22:10:45.187Z,21.70
2018-09-24T22:13:19.118Z,16.27
2018-09-24T22:15:53.084Z,17.57
2018-09-24T22:18:26.919Z,15.07
2018-09-24T22:21:00.895Z,18.03
2018-09-24T22:23:34.795Z,18.13
2018-09-24T22:26:08.646Z,13.50
2018-09-24T22:28:42.604Z,13.10
2018-09-24T22:31:16.276Z,17.40
2018-09-24T22:33:50.083Z,16.57
2018-09-24T22:36:23.848Z,16.17
2018-09-24T22:38:57.759Z,17.13
2018-09-24T22:41:31.653Z,19.23
2018-09-24T22:44:05.438Z,14.00
2018-09-24T22:46:39.414Z,17.60
2018-09-24T22:49:13.453Z,16.57
2018-09-24T22:51:47.462Z,18.70
2018-09-24T22:54:21.368Z,14.80
2018-09-24T22:56:55.361Z,16.33
2018-09-24T22:59:29.382Z,15.60
2018-09-24T23:02:03.084Z,15.50
2018-09-24T23:04:36.810Z,18.03
2018-09-24T23:07:10.558Z,17.73
2018-09-24T23:09:44.433Z,15.50
2018-09-24T23:12:18.308Z,15.20
2018-09-24T23:14:52.212Z,18.07
2018-09-24T23:17:26.172Z,17.17
2018-09-24T23:20:00.117Z,18.83
2018-09-24T23:22:33.838Z,17.70
2018-09-24T23:25:07.769Z,17.40
2018-09-24T23:27:41.509Z,16.60
2018-09-24T23:30:15.377Z,17.93
2018-09-24T23:32:49.231Z,15.40
2018-09-24T23:35:23.161Z,13.57
2018-09-24T23:37:57.061Z,24.33
2018-09-24T23:40:30.794Z,17.27
2018-09-24T23:43:04.737Z,16.33
2018-09-24T23:45:38.452Z,15.90
2018-09-24T23:48:12.253Z,21.60
2018-09-24T23:50:45.924Z,15.23
2018-09-24T23:53:19.784Z,15.73
2018-09-24T23:55:53.612Z,14.67
2018-09-24T23:58:27.578Z,18.57
